sensor_id;sensor_type;location;lat;lon;timestamp;P1;durP1;ratioP1;P2;durP2;ratioP2
15693;SDS011;7947;48.834;9.132;2023-04-15T00:01:44;2.00;;;1.40;;
15693;SDS011;7947;48.834;9.132;2023-04-15T00:04:47;1.67;;;1.40;;
15693;SDS011;7947;48.834;9.132;2023-04-15T00:07:51;2.90;;;1.87;;
15693;SDS011;7947;48.834;9.132;2023-04-15T00:10:55;2.33;;;1.67;;
15693;SDS011;7947;48.834;9.132;2023-04-15T00:13:59;3.27;;;1.60;;
15693;SDS011;7947;48.834;9.132;2023-04-15T00:17:02;6.53;;;1.77;;
15693;SDS011;7947;48.834;9.132;2023-04-15T00:20:06;3.00;;;1.50;;
15693;SDS011;7947;48.834;9.132;2023-04-15T00:23:10;3.53;;;1.60;;
15693;SDS011;7947;48.834;9.132;2023-04-15T00:26:13;2.73;;;1.63;;
15693;SDS011;7947;48.834;9.132;2023-04-15T00:29:16;2.37;;;1.33;;
15693;SDS011;7947;48.834;9.132;2023-04-15T00:32:18;3.53;;;1.80;;
15693;SDS011;7947;48.834;9.132;2023-04-15T00:35:21;2.60;;;2.17;;
15693;SDS011;7947;48.834;9.132;2023-04-15T00:38:26;2.23;;;1.50;;
15693;SDS011;7947;48.834;9.132;2023-04-15T00:41:29;3.53;;;1.70;;
15693;SDS011;7947;48.834;9.132;2023-04-15T00:44:32;3.20;;;1.63;;
15693;SDS011;7947;48.834;9.132;2023-04-15T00:47:35;3.40;;;1.83;;
15693;SDS011;7947;48.834;9.132;2023-04-15T00:50:40;3.23;;;1.50;;
15693;SDS011;7947;48.834;9.132;2023-04-15T00:53:44;1.97;;;1.37;;
15693;SDS011;7947;48.834;9.132;2023-04-15T00:56:47;3.13;;;1.33;;
15693;SDS011;7947;48.834;9.132;2023-04-15T00:59:50;2.83;;;1.43;;
15693;SDS011;7947;48.834;9.132;2023-04-15T01:02:54;2.70;;;1.50;;
15693;SDS011;7947;48.834;9.132;2023-04-15T01:05:58;2.07;;;1.67;;
15693;SDS011;7947;48.834;9.132;2023-04-15T01:09:05;4.43;;;2.03;;
15693;SDS011;7947;48.834;9.132;2023-04-15T01:12:08;2.90;;;1.97;;
15693;SDS011;7947;48.834;9.132;2023-04-15T01:15:15;2.70;;;1.53;;
15693;SDS011;7947;48.834;9.132;2023-04-15T01:18:18;3.73;;;2.40;;
15693;SDS011;7947;48.834;9.132;2023-04-15T01:21:22;2.47;;;1.13;;
15693;SDS011;7947;48.834;9.132;2023-04-15T01:24:26;3.00;;;2.00;;
15693;SDS011;7947;48.834;9.132;2023-04-15T01:27:32;3.53;;;2.27;;
15693;SDS011;7947;48.834;9.132;2023-04-15T01:30:37;3.17;;;1.70;;
15693;SDS011;7947;48.834;9.132;2023-04-15T01:33:40;2.53;;;1.60;;
15693;SDS011;7947;48.834;9.132;2023-04-15T01:36:44;2.73;;;1.40;;
15693;SDS011;7947;48.834;9.132;2023-04-15T01:39:47;2.53;;;1.70;;
15693;SDS011;7947;48.834;9.132;2023-04-15T01:42:51;3.23;;;1.80;;
15693;SDS011;7947;48.834;9.132;2023-04-15T01:45:53;4.73;;;2.20;;
15693;SDS011;7947;48.834;9.132;2023-04-15T01:48:57;2.50;;;1.60;;
15693;SDS011;7947;48.834;9.132;2023-04-15T01:52:00;4.77;;;2.20;;
15693;SDS011;7947;48.834;9.132;2023-04-15T01:55:03;4.50;;;1.70;;
15693;SDS011;7947;48.834;9.132;2023-04-15T01:58:07;4.67;;;2.40;;
15693;SDS011;7947;48.834;9.132;2023-04-15T02:01:10;4.67;;;2.07;;
15693;SDS011;7947;48.834;9.132;2023-04-15T02:04:13;3.67;;;1.67;;
15693;SDS011;7947;48.834;9.132;2023-04-15T02:07:18;2.60;;;1.80;;
15693;SDS011;7947;48.834;9.132;2023-04-15T02:10:20;3.00;;;2.00;;
15693;SDS011;7947;48.834;9.132;2023-04-15T02:13:24;2.90;;;1.90;;
15693;SDS011;7947;48.834;9.132;2023-04-15T02:16:27;5.87;;;2.20;;
15693;SDS011;7947;48.834;9.132;2023-04-15T02:19:30;2.83;;;1.90;;
15693;SDS011;7947;48.834;9.132;2023-04-15T02:22:33;2.63;;;2.17;;
15693;SDS011;7947;48.834;9.132;2023-04-15T02:25:35;4.53;;;2.73;;
15693;SDS011;7947;48.834;9.132;2023-04-15T02:28:40;2.67;;;1.70;;
15693;SDS011;7947;48.834;9.132;2023-04-15T02:31:43;4.67;;;2.90;;
15693;SDS011;7947;48.834;9.132;2023-04-15T02:34:46;2.93;;;1.83;;
15693;SDS011;7947;48.834;9.132;2023-04-15T02:37:48;3.07;;;1.97;;
15693;SDS011;7947;48.834;9.132;2023-04-15T02:40:51;4.97;;;2.07;;
15693;SDS011;7947;48.834;9.132;2023-04-15T02:43:55;4.10;;;2.10;;
15693;SDS011;7947;48.834;9.132;2023-04-15T02:46:57;3.30;;;2.20;;
15693;SDS011;7947;48.834;9.132;2023-04-15T02:50:01;4.83;;;2.40;;
15693;SDS011;7947;48.834;9.132;2023-04-15T02:53:04;4.50;;;2.33;;
15693;SDS011;7947;48.834;9.132;2023-04-15T02:56:07;4.50;;;2.40;;
15693;SDS011;7947;48.834;9.132;2023-04-15T02:59:11;3.47;;;1.97;;
15693;SDS011;7947;48.834;9.132;2023-04-15T03:02:14;2.77;;;1.90;;
15693;SDS011;7947;48.834;9.132;2023-04-15T03:05:17;4.83;;;2.17;;
15693;SDS011;7947;48.834;9.132;2023-04-15T03:08:19;3.60;;;1.90;;
15693;SDS011;7947;48.834;9.132;2023-04-15T03:11:22;3.30;;;1.73;;
15693;SDS011;7947;48.834;9.132;2023-04-15T03:14:26;3.17;;;1.80;;
15693;SDS011;7947;48.834;9.132;2023-04-15T03:17:28;4.77;;;1.97;;
15693;SDS011;7947;48.834;9.132;2023-04-15T03:20:31;6.63;;;2.40;;
15693;SDS011;7947;48.834;9.132;2023-04-15T03:23:34;3.60;;;2.20;;
15693;SDS011;7947;48.834;9.132;2023-04-15T03:26:36;3.53;;;1.80;;
15693;SDS011;7947;48.834;9.132;2023-04-15T03:29:41;5.20;;;2.20;;
15693;SDS011;7947;48.834;9.132;2023-04-15T03:32:44;3.97;;;2.27;;
15693;SDS011;7947;48.834;9.132;2023-04-15T03:35:47;3.37;;;2.40;;
15693;SDS011;7947;48.834;9.132;2023-04-15T03:38:49;3.27;;;2.00;;
15693;SDS011;7947;48.834;9.132;2023-04-15T03:41:54;3.23;;;2.00;;
15693;SDS011;7947;48.834;9.132;2023-04-15T03:44:59;5.73;;;2.30;;
15693;SDS011;7947;48.834;9.132;2023-04-15T03:48:02;4.00;;;2.00;;
15693;SDS011;7947;48.834;9.132;2023-04-15T03:51:18;5.33;;;2.00;;
15693;SDS011;7947;48.834;9.132;2023-04-15T03:54:21;7.93;;;2.43;;
15693;SDS011;7947;48.834;9.132;2023-04-15T03:57:24;2.70;;;1.87;;
15693;SDS011;7947;48.834;9.132;2023-04-15T04:00:29;3.70;;;1.90;;
15693;SDS011;7947;48.834;9.132;2023-04-15T04:03:31;5.23;;;2.37;;
15693;SDS011;7947;48.834;9.132;2023-04-15T04:06:34;2.97;;;1.77;;
15693;SDS011;7947;48.834;9.132;2023-04-15T04:09:37;5.03;;;1.90;;
15693;SDS011;7947;48.834;9.132;2023-04-15T04:12:41;1.80;;;1.60;;
15693;SDS011;7947;48.834;9.132;2023-04-15T04:15:45;2.43;;;1.57;;
15693;SDS011;7947;48.834;9.132;2023-04-15T04:18:48;2.90;;;1.90;;
15693;SDS011;7947;48.834;9.132;2023-04-15T04:21:51;2.77;;;2.03;;
15693;SDS011;7947;48.834;9.132;2023-04-15T04:24:54;5.47;;;2.33;;
15693;SDS011;7947;48.834;9.132;2023-04-15T04:27:56;2.10;;;1.70;;
15693;SDS011;7947;48.834;9.132;2023-04-15T04:31:00;3.23;;;2.27;;
15693;SDS011;7947;48.834;9.132;2023-04-15T04:34:03;3.00;;;2.10;;
15693;SDS011;7947;48.834;9.132;2023-04-15T04:37:06;3.60;;;2.57;;
15693;SDS011;7947;48.834;9.132;2023-04-15T04:40:09;4.70;;;2.63;;
15693;SDS011;7947;48.834;9.132;2023-04-15T04:43:12;3.67;;;2.20;;
15693;SDS011;7947;48.834;9.132;2023-04-15T04:46:17;4.67;;;2.53;;
15693;SDS011;7947;48.834;9.132;2023-04-15T04:49:20;4.53;;;2.23;;
15693;SDS011;7947;48.834;9.132;2023-04-15T04:52:22;2.90;;;2.23;;
15693;SDS011;7947;48.834;9.132;2023-04-15T04:55:25;3.03;;;2.27;;
15693;SDS011;7947;48.834;9.132;2023-04-15T04:58:28;4.63;;;2.47;;
15693;SDS011;7947;48.834;9.132;2023-04-15T05:01:32;5.73;;;2.90;;
15693;SDS011;7947;48.834;9.132;2023-04-15T05:04:35;5.97;;;2.80;;
15693;SDS011;7947;48.834;9.132;2023-04-15T05:07:38;3.97;;;2.73;;
15693;SDS011;7947;48.834;9.132;2023-04-15T05:10:40;6.20;;;3.03;;
15693;SDS011;7947;48.834;9.132;2023-04-15T05:13:43;5.43;;;2.80;;
15693;SDS011;7947;48.834;9.132;2023-04-15T05:16:47;5.07;;;3.23;;
15693;SDS011;7947;48.834;9.132;2023-04-15T05:19:50;7.07;;;3.47;;
15693;SDS011;7947;48.834;9.132;2023-04-15T05:22:54;4.33;;;2.93;;
15693;SDS011;7947;48.834;9.132;2023-04-15T05:25:56;3.70;;;2.87;;
15693;SDS011;7947;48.834;9.132;2023-04-15T05:28:59;5.50;;;2.97;;
15693;SDS011;7947;48.834;9.132;2023-04-15T05:32:04;3.43;;;2.63;;
15693;SDS011;7947;48.834;9.132;2023-04-15T05:35:07;4.43;;;2.93;;
15693;SDS011;7947;48.834;9.132;2023-04-15T05:38:10;4.23;;;2.63;;
15693;SDS011;7947;48.834;9.132;2023-04-15T05:41:13;3.47;;;2.20;;
15693;SDS011;7947;48.834;9.132;2023-04-15T05:44:19;3.27;;;2.47;;
15693;SDS011;7947;48.834;9.132;2023-04-15T05:47:24;3.50;;;2.33;;
15693;SDS011;7947;48.834;9.132;2023-04-15T05:50:26;5.50;;;2.70;;
15693;SDS011;7947;48.834;9.132;2023-04-15T05:53:29;7.60;;;2.77;;
15693;SDS011;7947;48.834;9.132;2023-04-15T05:56:32;3.50;;;2.90;;
15693;SDS011;7947;48.834;9.132;2023-04-15T05:59:34;4.23;;;2.70;;
15693;SDS011;7947;48.834;9.132;2023-04-15T06:02:40;4.07;;;2.30;;
15693;SDS011;7947;48.834;9.132;2023-04-15T06:05:43;4.93;;;2.83;;
15693;SDS011;7947;48.834;9.132;2023-04-15T06:08:46;3.97;;;2.50;;
15693;SDS011;7947;48.834;9.132;2023-04-15T06:11:49;3.70;;;2.23;;
15693;SDS011;7947;48.834;9.132;2023-04-15T06:14:52;6.07;;;2.20;;
15693;SDS011;7947;48.834;9.132;2023-04-15T06:17:57;4.87;;;2.40;;
15693;SDS011;7947;48.834;9.132;2023-04-15T06:20:59;3.73;;;2.63;;
15693;SDS011;7947;48.834;9.132;2023-04-15T06:24:02;4.23;;;2.50;;
15693;SDS011;7947;48.834;9.132;2023-04-15T06:27:05;4.87;;;2.07;;
15693;SDS011;7947;48.834;9.132;2023-04-15T06:30:08;3.77;;;2.33;;
15693;SDS011;7947;48.834;9.132;2023-04-15T06:33:13;4.60;;;2.30;;
15693;SDS011;7947;48.834;9.132;2023-04-15T06:36:16;3.93;;;2.67;;
15693;SDS011;7947;48.834;9.132;2023-04-15T06:39:20;2.90;;;2.10;;
15693;SDS011;7947;48.834;9.132;2023-04-15T06:42:23;4.97;;;2.67;;
15693;SDS011;7947;48.834;9.132;2023-04-15T06:45:25;4.23;;;2.90;;
15693;SDS011;7947;48.834;9.132;2023-04-15T06:48:29;3.87;;;2.33;;
15693;SDS011;7947;48.834;9.132;2023-04-15T06:51:33;5.30;;;2.47;;
15693;SDS011;7947;48.834;9.132;2023-04-15T06:54:36;8.07;;;2.90;;
15693;SDS011;7947;48.834;9.132;2023-04-15T06:57:38;4.27;;;2.77;;
15693;SDS011;7947;48.834;9.132;2023-04-15T07:00:41;5.57;;;2.60;;
15693;SDS011;7947;48.834;9.132;2023-04-15T07:03:46;4.75;;;2.85;;
15693;SDS011;7947;48.834;9.132;2023-04-15T07:06:49;5.88;;;2.60;;
15693;SDS011;7947;48.834;9.132;2023-04-15T07:09:51;3.13;;;2.47;;
15693;SDS011;7947;48.834;9.132;2023-04-15T07:12:55;5.18;;;2.47;;
15693;SDS011;7947;48.834;9.132;2023-04-15T07:15:58;3.72;;;2.42;;
15693;SDS011;7947;48.834;9.132;2023-04-15T07:19:02;3.65;;;2.88;;
15693;SDS011;7947;48.834;9.132;2023-04-15T07:22:05;4.90;;;2.47;;
15693;SDS011;7947;48.834;9.132;2023-04-15T07:25:08;4.43;;;2.33;;
15693;SDS011;7947;48.834;9.132;2023-04-15T07:28:11;5.60;;;2.22;;
15693;SDS011;7947;48.834;9.132;2023-04-15T07:31:13;4.60;;;2.50;;
15693;SDS011;7947;48.834;9.132;2023-04-15T07:34:18;5.03;;;2.30;;
15693;SDS011;7947;48.834;9.132;2023-04-15T07:37:21;2.92;;;2.00;;
15693;SDS011;7947;48.834;9.132;2023-04-15T07:40:23;4.82;;;2.53;;
15693;SDS011;7947;48.834;9.132;2023-04-15T07:43:26;3.80;;;2.10;;
15693;SDS011;7947;48.834;9.132;2023-04-15T07:46:29;2.30;;;1.67;;
15693;SDS011;7947;48.834;9.132;2023-04-15T07:49:33;3.05;;;1.40;;
15693;SDS011;7947;48.834;9.132;2023-04-15T07:52:36;2.28;;;1.50;;
15693;SDS011;7947;48.834;9.132;2023-04-15T07:55:40;5.45;;;1.67;;
15693;SDS011;7947;48.834;9.132;2023-04-15T07:58:42;4.63;;;1.60;;
15693;SDS011;7947;48.834;9.132;2023-04-15T08:01:45;3.88;;;1.50;;
15693;SDS011;7947;48.834;9.132;2023-04-15T08:04:50;3.28;;;1.60;;
15693;SDS011;7947;48.834;9.132;2023-04-15T08:07:53;3.00;;;1.33;;
15693;SDS011;7947;48.834;9.132;2023-04-15T08:10:57;2.90;;;1.40;;
15693;SDS011;7947;48.834;9.132;2023-04-15T08:13:59;3.33;;;1.50;;
15693;SDS011;7947;48.834;9.132;2023-04-15T08:17:03;2.80;;;1.55;;
15693;SDS011;7947;48.834;9.132;2023-04-15T08:20:09;3.53;;;1.63;;
15693;SDS011;7947;48.834;9.132;2023-04-15T08:23:13;3.28;;;1.13;;
15693;SDS011;7947;48.834;9.132;2023-04-15T08:26:16;4.78;;;1.23;;
15693;SDS011;7947;48.834;9.132;2023-04-15T08:29:18;3.15;;;1.38;;
15693;SDS011;7947;48.834;9.132;2023-04-15T08:32:22;2.33;;;1.42;;
15693;SDS011;7947;48.834;9.132;2023-04-15T08:35:28;5.57;;;1.38;;
15693;SDS011;7947;48.834;9.132;2023-04-15T08:38:30;3.03;;;1.33;;
15693;SDS011;7947;48.834;9.132;2023-04-15T08:41:36;2.97;;;1.73;;
15693;SDS011;7947;48.834;9.132;2023-04-15T08:44:42;2.70;;;1.55;;
15693;SDS011;7947;48.834;9.132;2023-04-15T08:47:45;3.17;;;1.80;;
15693;SDS011;7947;48.834;9.132;2023-04-15T08:50:55;3.60;;;1.90;;
15693;SDS011;7947;48.834;9.132;2023-04-15T08:53:59;2.72;;;1.50;;
15693;SDS011;7947;48.834;9.132;2023-04-15T08:57:03;2.33;;;1.40;;
15693;SDS011;7947;48.834;9.132;2023-04-15T09:00:06;3.42;;;1.52;;
15693;SDS011;7947;48.834;9.132;2023-04-15T09:03:10;2.58;;;1.52;;
15693;SDS011;7947;48.834;9.132;2023-04-15T09:06:14;2.35;;;1.25;;
15693;SDS011;7947;48.834;9.132;2023-04-15T09:09:18;5.43;;;1.60;;
15693;SDS011;7947;48.834;9.132;2023-04-15T09:12:20;2.72;;;1.45;;
15693;SDS011;7947;48.834;9.132;2023-04-15T09:15:23;3.30;;;1.42;;
15693;SDS011;7947;48.834;9.132;2023-04-15T09:18:28;3.47;;;1.52;;
15693;SDS011;7947;48.834;9.132;2023-04-15T09:21:33;5.03;;;1.40;;
15693;SDS011;7947;48.834;9.132;2023-04-15T09:24:36;2.72;;;1.40;;
15693;SDS011;7947;48.834;9.132;2023-04-15T09:27:45;3.28;;;1.42;;
15693;SDS011;7947;48.834;9.132;2023-04-15T09:30:50;2.42;;;1.30;;
15693;SDS011;7947;48.834;9.132;2023-04-15T09:33:54;2.63;;;1.42;;
15693;SDS011;7947;48.834;9.132;2023-04-15T09:36:59;2.92;;;1.25;;
15693;SDS011;7947;48.834;9.132;2023-04-15T09:40:02;3.42;;;1.55;;
15693;SDS011;7947;48.834;9.132;2023-04-15T09:43:06;1.50;;;1.40;;
15693;SDS011;7947;48.834;9.132;2023-04-15T09:46:10;2.95;;;1.70;;
15693;SDS011;7947;48.834;9.132;2023-04-15T09:49:12;3.13;;;1.30;;
15693;SDS011;7947;48.834;9.132;2023-04-15T09:52:17;1.85;;;1.30;;
15693;SDS011;7947;48.834;9.132;2023-04-15T09:55:20;2.63;;;1.40;;
15693;SDS011;7947;48.834;9.132;2023-04-15T09:58:24;1.27;;;1.13;;
15693;SDS011;7947;48.834;9.132;2023-04-15T10:01:28;2.35;;;1.70;;
15693;SDS011;7947;48.834;9.132;2023-04-15T10:04:31;4.18;;;1.70;;
15693;SDS011;7947;48.834;9.132;2023-04-15T10:07:40;3.45;;;1.38;;
15693;SDS011;7947;48.834;9.132;2023-04-15T10:10:44;1.88;;;1.50;;
15693;SDS011;7947;48.834;9.132;2023-04-15T10:13:47;4.35;;;1.90;;
15693;SDS011;7947;48.834;9.132;2023-04-15T10:16:51;1.75;;;1.25;;
15693;SDS011;7947;48.834;9.132;2023-04-15T10:19:57;3.10;;;2.00;;
15693;SDS011;7947;48.834;9.132;2023-04-15T10:23:04;4.13;;;1.88;;
15693;SDS011;7947;48.834;9.132;2023-04-15T10:26:11;2.03;;;1.55;;
15693;SDS011;7947;48.834;9.132;2023-04-15T10:29:15;3.13;;;1.95;;
15693;SDS011;7947;48.834;9.132;2023-04-15T10:32:19;2.22;;;1.85;;
15693;SDS011;7947;48.834;9.132;2023-04-15T10:35:22;3.35;;;2.10;;
15693;SDS011;7947;48.834;9.132;2023-04-15T10:38:34;2.22;;;1.45;;
15693;SDS011;7947;48.834;9.132;2023-04-15T10:41:38;4.05;;;1.45;;
15693;SDS011;7947;48.834;9.132;2023-04-15T10:44:42;3.17;;;1.67;;
15693;SDS011;7947;48.834;9.132;2023-04-15T10:47:45;3.90;;;1.58;;
15693;SDS011;7947;48.834;9.132;2023-04-15T10:50:56;2.88;;;1.60;;
15693;SDS011;7947;48.834;9.132;2023-04-15T10:54:03;2.10;;;1.55;;
15693;SDS011;7947;48.834;9.132;2023-04-15T10:57:13;3.20;;;1.42;;
15693;SDS011;7947;48.834;9.132;2023-04-15T11:00:18;3.72;;;1.50;;
15693;SDS011;7947;48.834;9.132;2023-04-15T11:03:33;3.13;;;1.75;;
15693;SDS011;7947;48.834;9.132;2023-04-15T11:06:42;2.60;;;1.42;;
15693;SDS011;7947;48.834;9.132;2023-04-15T11:09:48;3.92;;;2.03;;
15693;SDS011;7947;48.834;9.132;2023-04-15T11:12:51;4.60;;;1.65;;
15693;SDS011;7947;48.834;9.132;2023-04-15T11:15:56;4.05;;;1.52;;
15693;SDS011;7947;48.834;9.132;2023-04-15T11:19:01;1.95;;;1.45;;
15693;SDS011;7947;48.834;9.132;2023-04-15T11:22:05;2.90;;;1.70;;
15693;SDS011;7947;48.834;9.132;2023-04-15T11:25:11;2.72;;;1.58;;
15693;SDS011;7947;48.834;9.132;2023-04-15T11:28:24;1.95;;;1.55;;
15693;SDS011;7947;48.834;9.132;2023-04-15T11:31:28;2.13;;;1.63;;
15693;SDS011;7947;48.834;9.132;2023-04-15T11:34:31;4.50;;;1.70;;
15693;SDS011;7947;48.834;9.132;2023-04-15T11:37:36;5.43;;;1.95;;
15693;SDS011;7947;48.834;9.132;2023-04-15T11:40:41;2.78;;;2.00;;
15693;SDS011;7947;48.834;9.132;2023-04-15T11:43:47;2.50;;;1.35;;
15693;SDS011;7947;48.834;9.132;2023-04-15T11:46:50;1.95;;;1.33;;
15693;SDS011;7947;48.834;9.132;2023-04-15T11:49:53;2.80;;;1.58;;
15693;SDS011;7947;48.834;9.132;2023-04-15T11:52:57;3.33;;;1.42;;
15693;SDS011;7947;48.834;9.132;2023-04-15T11:56:04;1.92;;;1.45;;
15693;SDS011;7947;48.834;9.132;2023-04-15T11:59:08;1.75;;;1.50;;
15693;SDS011;7947;48.834;9.132;2023-04-15T12:02:11;2.75;;;2.05;;
15693;SDS011;7947;48.834;9.132;2023-04-15T12:05:14;3.65;;;2.15;;
15693;SDS011;7947;48.834;9.132;2023-04-15T12:08:17;3.20;;;2.15;;
15693;SDS011;7947;48.834;9.132;2023-04-15T12:11:26;4.50;;;1.80;;
15693;SDS011;7947;48.834;9.132;2023-04-15T12:14:33;2.85;;;1.77;;
15693;SDS011;7947;48.834;9.132;2023-04-15T12:17:38;3.08;;;1.73;;
15693;SDS011;7947;48.834;9.132;2023-04-15T12:20:52;2.63;;;1.67;;
15693;SDS011;7947;48.834;9.132;2023-04-15T12:23:55;4.43;;;1.83;;
15693;SDS011;7947;48.834;9.132;2023-04-15T12:27:01;2.53;;;1.48;;
15693;SDS011;7947;48.834;9.132;2023-04-15T12:30:06;1.83;;;1.67;;
15693;SDS011;7947;48.834;9.132;2023-04-15T12:33:09;3.78;;;1.70;;
15693;SDS011;7947;48.834;9.132;2023-04-15T12:36:12;4.40;;;2.03;;
15693;SDS011;7947;48.834;9.132;2023-04-15T12:39:15;4.70;;;1.88;;
15693;SDS011;7947;48.834;9.132;2023-04-15T12:42:19;2.92;;;1.50;;
15693;SDS011;7947;48.834;9.132;2023-04-15T12:45:22;2.65;;;1.83;;
15693;SDS011;7947;48.834;9.132;2023-04-15T12:48:25;2.10;;;1.70;;
15693;SDS011;7947;48.834;9.132;2023-04-15T12:51:28;4.07;;;2.10;;
15693;SDS011;7947;48.834;9.132;2023-04-15T12:54:32;3.38;;;1.67;;
15693;SDS011;7947;48.834;9.132;2023-04-15T12:57:37;1.83;;;1.73;;
15693;SDS011;7947;48.834;9.132;2023-04-15T13:00:40;2.83;;;1.75;;
15693;SDS011;7947;48.834;9.132;2023-04-15T13:03:43;3.28;;;1.55;;
15693;SDS011;7947;48.834;9.132;2023-04-15T13:06:46;1.63;;;1.17;;
15693;SDS011;7947;48.834;9.132;2023-04-15T13:09:49;2.65;;;1.30;;
15693;SDS011;7947;48.834;9.132;2023-04-15T13:12:53;1.83;;;1.30;;
15693;SDS011;7947;48.834;9.132;2023-04-15T13:15:57;2.75;;;1.00;;
15693;SDS011;7947;48.834;9.132;2023-04-15T13:19:00;1.70;;;1.25;;
15693;SDS011;7947;48.834;9.132;2023-04-15T13:22:03;1.35;;;1.10;;
15693;SDS011;7947;48.834;9.132;2023-04-15T13:25:07;1.73;;;1.13;;
15693;SDS011;7947;48.834;9.132;2023-04-15T13:28:12;1.52;;;0.93;;
15693;SDS011;7947;48.834;9.132;2023-04-15T13:31:14;2.20;;;1.00;;
15693;SDS011;7947;48.834;9.132;2023-04-15T13:34:17;1.23;;;0.80;;
15693;SDS011;7947;48.834;9.132;2023-04-15T13:37:22;0.90;;;0.80;;
15693;SDS011;7947;48.834;9.132;2023-04-15T13:40:27;1.30;;;0.60;;
15693;SDS011;7947;48.834;9.132;2023-04-15T13:43:31;0.63;;;0.45;;
15693;SDS011;7947;48.834;9.132;2023-04-15T13:46:34;0.85;;;0.50;;
15693;SDS011;7947;48.834;9.132;2023-04-15T13:49:38;0.75;;;0.57;;
15693;SDS011;7947;48.834;9.132;2023-04-15T13:52:40;0.90;;;0.70;;
15693;SDS011;7947;48.834;9.132;2023-04-15T13:55:43;2.17;;;0.75;;
15693;SDS011;7947;48.834;9.132;2023-04-15T13:58:48;0.77;;;0.68;;
15693;SDS011;7947;48.834;9.132;2023-04-15T14:01:50;0.98;;;0.65;;
15693;SDS011;7947;48.834;9.132;2023-04-15T14:04:54;0.73;;;0.57;;
15693;SDS011;7947;48.834;9.132;2023-04-15T14:07:58;0.98;;;0.70;;
15693;SDS011;7947;48.834;9.132;2023-04-15T14:11:01;2.40;;;0.82;;
15693;SDS011;7947;48.834;9.132;2023-04-15T14:14:05;1.80;;;0.50;;
15693;SDS011;7947;48.834;9.132;2023-04-15T14:17:08;1.33;;;0.88;;
15693;SDS011;7947;48.834;9.132;2023-04-15T14:20:11;1.13;;;0.77;;
15693;SDS011;7947;48.834;9.132;2023-04-15T14:23:17;1.23;;;0.93;;
15693;SDS011;7947;48.834;9.132;2023-04-15T14:26:20;1.50;;;0.80;;
15693;SDS011;7947;48.834;9.132;2023-04-15T14:29:24;1.27;;;0.77;;
15693;SDS011;7947;48.834;9.132;2023-04-15T14:32:27;1.85;;;1.05;;
15693;SDS011;7947;48.834;9.132;2023-04-15T14:35:29;1.15;;;0.90;;
15693;SDS011;7947;48.834;9.132;2023-04-15T14:38:33;0.80;;;0.68;;
15693;SDS011;7947;48.834;9.132;2023-04-15T14:41:38;0.90;;;0.70;;
15693;SDS011;7947;48.834;9.132;2023-04-15T14:44:42;2.38;;;1.02;;
15693;SDS011;7947;48.834;9.132;2023-04-15T14:47:45;2.28;;;1.20;;
15693;SDS011;7947;48.834;9.132;2023-04-15T14:50:48;2.33;;;0.80;;
15693;SDS011;7947;48.834;9.132;2023-04-15T14:53:51;1.23;;;1.05;;
15693;SDS011;7947;48.834;9.132;2023-04-15T14:56:54;1.80;;;1.02;;
15693;SDS011;7947;48.834;9.132;2023-04-15T14:59:58;0.90;;;0.90;;
15693;SDS011;7947;48.834;9.132;2023-04-15T15:03:01;1.05;;;0.93;;
15693;SDS011;7947;48.834;9.132;2023-04-15T15:06:04;1.27;;;1.15;;
15693;SDS011;7947;48.834;9.132;2023-04-15T15:09:07;2.63;;;1.23;;
15693;SDS011;7947;48.834;9.132;2023-04-15T15:12:10;1.73;;;1.05;;
15693;SDS011;7947;48.834;9.132;2023-04-15T15:15:14;3.55;;;1.30;;
15693;SDS011;7947;48.834;9.132;2023-04-15T15:18:29;2.08;;;1.10;;
15693;SDS011;7947;48.834;9.132;2023-04-15T15:21:32;2.33;;;1.15;;
15693;SDS011;7947;48.834;9.132;2023-04-15T15:24:35;1.40;;;1.10;;
15693;SDS011;7947;48.834;9.132;2023-04-15T15:27:38;2.72;;;1.00;;
15693;SDS011;7947;48.834;9.132;2023-04-15T15:30:42;0.90;;;0.90;;
15693;SDS011;7947;48.834;9.132;2023-04-15T15:33:45;1.00;;;0.80;;
15693;SDS011;7947;48.834;9.132;2023-04-15T15:36:48;1.58;;;0.85;;
15693;SDS011;7947;48.834;9.132;2023-04-15T15:39:51;2.40;;;1.17;;
15693;SDS011;7947;48.834;9.132;2023-04-15T15:42:54;1.02;;;0.90;;
15693;SDS011;7947;48.834;9.132;2023-04-15T15:45:58;3.30;;;1.10;;
15693;SDS011;7947;48.834;9.132;2023-04-15T15:49:02;1.45;;;1.27;;
15693;SDS011;7947;48.834;9.132;2023-04-15T15:52:05;1.00;;;0.88;;
15693;SDS011;7947;48.834;9.132;2023-04-15T15:55:08;0.95;;;0.88;;
15693;SDS011;7947;48.834;9.132;2023-04-15T15:58:12;1.30;;;0.95;;
15693;SDS011;7947;48.834;9.132;2023-04-15T16:01:16;1.35;;;0.90;;
15693;SDS011;7947;48.834;9.132;2023-04-15T16:04:19;2.92;;;1.15;;
15693;SDS011;7947;48.834;9.132;2023-04-15T16:07:22;2.00;;;0.98;;
15693;SDS011;7947;48.834;9.132;2023-04-15T16:10:25;1.65;;;0.75;;
15693;SDS011;7947;48.834;9.132;2023-04-15T16:13:29;1.13;;;1.02;;
15693;SDS011;7947;48.834;9.132;2023-04-15T16:16:33;1.52;;;0.90;;
15693;SDS011;7947;48.834;9.132;2023-04-15T16:19:36;1.48;;;1.00;;
15693;SDS011;7947;48.834;9.132;2023-04-15T16:22:38;1.30;;;1.15;;
15693;SDS011;7947;48.834;9.132;2023-04-15T16:25:42;1.75;;;0.90;;
15693;SDS011;7947;48.834;9.132;2023-04-15T16:28:45;1.20;;;1.10;;
15693;SDS011;7947;48.834;9.132;2023-04-15T16:31:49;1.50;;;1.10;;
15693;SDS011;7947;48.834;9.132;2023-04-15T16:34:52;2.22;;;1.08;;
15693;SDS011;7947;48.834;9.132;2023-04-15T16:37:55;1.20;;;1.10;;
15693;SDS011;7947;48.834;9.132;2023-04-15T16:40:58;2.17;;;1.30;;
15693;SDS011;7947;48.834;9.132;2023-04-15T16:44:02;2.30;;;1.52;;
15693;SDS011;7947;48.834;9.132;2023-04-15T16:47:06;2.25;;;1.13;;
15693;SDS011;7947;48.834;9.132;2023-04-15T16:50:11;2.58;;;1.85;;
15693;SDS011;7947;48.834;9.132;2023-04-15T16:53:14;2.33;;;2.13;;
15693;SDS011;7947;48.834;9.132;2023-04-15T16:56:17;2.40;;;1.50;;
15693;SDS011;7947;48.834;9.132;2023-04-15T16:59:19;1.83;;;1.25;;
15693;SDS011;7947;48.834;9.132;2023-04-15T17:02:24;1.60;;;1.50;;
15693;SDS011;7947;48.834;9.132;2023-04-15T17:05:27;1.50;;;1.40;;
15693;SDS011;7947;48.834;9.132;2023-04-15T17:08:31;1.80;;;1.40;;
15693;SDS011;7947;48.834;9.132;2023-04-15T17:11:33;1.55;;;1.27;;
15693;SDS011;7947;48.834;9.132;2023-04-15T17:14:38;1.58;;;1.33;;
15693;SDS011;7947;48.834;9.132;2023-04-15T17:17:42;2.30;;;1.50;;
15693;SDS011;7947;48.834;9.132;2023-04-15T17:20:45;1.47;;;1.00;;
15693;SDS011;7947;48.834;9.132;2023-04-15T17:23:48;1.33;;;1.20;;
15693;SDS011;7947;48.834;9.132;2023-04-15T17:26:53;2.40;;;1.30;;
15693;SDS011;7947;48.834;9.132;2023-04-15T17:29:56;1.40;;;1.30;;
15693;SDS011;7947;48.834;9.132;2023-04-15T17:33:00;1.40;;;1.17;;
15693;SDS011;7947;48.834;9.132;2023-04-15T17:36:23;1.23;;;1.13;;
15693;SDS011;7947;48.834;9.132;2023-04-15T17:39:27;1.50;;;1.20;;
15693;SDS011;7947;48.834;9.132;2023-04-15T17:42:30;1.43;;;1.10;;
15693;SDS011;7947;48.834;9.132;2023-04-15T17:45:32;1.70;;;1.35;;
15693;SDS011;7947;48.834;9.132;2023-04-15T17:48:37;3.90;;;1.10;;
15693;SDS011;7947;48.834;9.132;2023-04-15T17:51:40;1.35;;;1.05;;
15693;SDS011;7947;48.834;9.132;2023-04-15T17:54:42;1.97;;;1.47;;
15693;SDS011;7947;48.834;9.132;2023-04-15T17:57:46;3.60;;;1.10;;
15693;SDS011;7947;48.834;9.132;2023-04-15T18:00:49;2.53;;;0.90;;
15693;SDS011;7947;48.834;9.132;2023-04-15T18:03:53;1.00;;;0.80;;
15693;SDS011;7947;48.834;9.132;2023-04-15T18:06:56;3.30;;;1.30;;
15693;SDS011;7947;48.834;9.132;2023-04-15T18:09:59;2.47;;;1.43;;
15693;SDS011;7947;48.834;9.132;2023-04-15T18:13:02;3.27;;;1.90;;
15693;SDS011;7947;48.834;9.132;2023-04-15T18:16:05;12.60;;;5.70;;
15693;SDS011;7947;48.834;9.132;2023-04-15T18:19:09;1.87;;;1.50;;
15693;SDS011;7947;48.834;9.132;2023-04-15T18:22:13;2.47;;;1.40;;
15693;SDS011;7947;48.834;9.132;2023-04-15T18:25:16;2.17;;;1.30;;
15693;SDS011;7947;48.834;9.132;2023-04-15T18:28:19;3.93;;;2.30;;
15693;SDS011;7947;48.834;9.132;2023-04-15T18:31:23;1.80;;;1.00;;
15693;SDS011;7947;48.834;9.132;2023-04-15T18:34:28;1.23;;;1.10;;
15693;SDS011;7947;48.834;9.132;2023-04-15T18:37:31;1.93;;;1.47;;
15693;SDS011;7947;48.834;9.132;2023-04-15T18:40:36;2.77;;;1.57;;
15693;SDS011;7947;48.834;9.132;2023-04-15T18:43:39;1.43;;;1.20;;